sensor_id;sensor_type;location;lat;lon;timestamp;P1;P2;P0
47810;PMS5003;33575;52.600;7.318;2023-05-14T00:02:09;29;29;
47810;PMS5003;33575;52.600;7.318;2023-05-14T00:04:40;30;28;
47810;PMS5003;33575;52.600;7.318;2023-05-14T00:07:10;24;24;
47810;PMS5003;33575;52.600;7.318;2023-05-14T00:09:40;26;25;
47810;PMS5003;33575;52.600;7.318;2023-05-14T00:12:10;28;26;
47810;PMS5003;33575;52.600;7.318;2023-05-14T00:14:41;27;26;
47810;PMS5003;33575;52.600;7.318;2023-05-14T00:17:12;35;31;
47810;PMS5003;33575;52.600;7.318;2023-05-14T00:19:42;32;32;
47810;PMS5003;33575;52.600;7.318;2023-05-14T00:22:12;36;35;
47810;PMS5003;33575;52.600;7.318;2023-05-14T00:24:42;36;34;
47810;PMS5003;33575;52.600;7.318;2023-05-14T00:27:13;32;32;
47810;PMS5003;33575;52.600;7.318;2023-05-14T00:29:44;36;36;
47810;PMS5003;33575;52.600;7.318;2023-05-14T00:32:14;36;36;
47810;PMS5003;33575;52.600;7.318;2023-05-14T00:34:44;32;32;
47810;PMS5003;33575;52.600;7.318;2023-05-14T00:37:15;39;39;
47810;PMS5003;33575;52.600;7.318;2023-05-14T00:39:45;36;35;
47810;PMS5003;33575;52.600;7.318;2023-05-14T00:42:15;42;40;
47810;PMS5003;33575;52.600;7.318;2023-05-14T00:44:46;39;38;
47810;PMS5003;33575;52.600;7.318;2023-05-14T00:47:16;39;37;
47810;PMS5003;33575;52.600;7.318;2023-05-14T00:49:47;38;38;
47810;PMS5003;33575;52.600;7.318;2023-05-14T00:52:18;32;30;
47810;PMS5003;33575;52.600;7.318;2023-05-14T00:54:48;47;45;
47810;PMS5003;33575;52.600;7.318;2023-05-14T00:57:18;39;39;
47810;PMS5003;33575;52.600;7.318;2023-05-14T00:59:48;45;45;
47810;PMS5003;33575;52.600;7.318;2023-05-14T01:02:19;36;36;
47810;PMS5003;33575;52.600;7.318;2023-05-14T01:04:49;36;35;
47810;PMS5003;33575;52.600;7.318;2023-05-14T01:07:22;31;31;
47810;PMS5003;33575;52.600;7.318;2023-05-14T01:09:52;41;39;
47810;PMS5003;33575;52.600;7.318;2023-05-14T01:12:23;37;36;
47810;PMS5003;33575;52.600;7.318;2023-05-14T01:14:53;32;29;
47810;PMS5003;33575;52.600;7.318;2023-05-14T01:17:22;28;27;
47810;PMS5003;33575;52.600;7.318;2023-05-14T01:19:52;26;26;
47810;PMS5003;33575;52.600;7.318;2023-05-14T01:22:23;31;29;
47810;PMS5003;33575;52.600;7.318;2023-05-14T01:24:53;27;24;
47810;PMS5003;33575;52.600;7.318;2023-05-14T01:27:24;34;33;
47810;PMS5003;33575;52.600;7.318;2023-05-14T01:29:58;35;34;
47810;PMS5003;33575;52.600;7.318;2023-05-14T01:32:25;41;38;
47810;PMS5003;33575;52.600;7.318;2023-05-14T01:34:55;33;32;
47810;PMS5003;33575;52.600;7.318;2023-05-14T01:37:26;31;29;
47810;PMS5003;33575;52.600;7.318;2023-05-14T01:39:56;46;41;
47810;PMS5003;33575;52.600;7.318;2023-05-14T01:42:26;35;32;
47810;PMS5003;33575;52.600;7.318;2023-05-14T01:44:56;37;37;
47810;PMS5003;33575;52.600;7.318;2023-05-14T01:47:27;58;57;
47810;PMS5003;33575;52.600;7.318;2023-05-14T01:49:58;61;56;
47810;PMS5003;33575;52.600;7.318;2023-05-14T01:52:28;46;46;
47810;PMS5003;33575;52.600;7.318;2023-05-14T01:54:59;59;58;
47810;PMS5003;33575;52.600;7.318;2023-05-14T01:57:29;37;36;
47810;PMS5003;33575;52.600;7.318;2023-05-14T02:00:00;46;45;
47810;PMS5003;33575;52.600;7.318;2023-05-14T02:02:31;38;36;
47810;PMS5003;33575;52.600;7.318;2023-05-14T02:05:01;43;43;
47810;PMS5003;33575;52.600;7.318;2023-05-14T02:07:32;43;42;
47810;PMS5003;33575;52.600;7.318;2023-05-14T02:10:02;36;34;
47810;PMS5003;33575;52.600;7.318;2023-05-14T02:12:33;47;44;
47810;PMS5003;33575;52.600;7.318;2023-05-14T02:15:03;49;47;
47810;PMS5003;33575;52.600;7.318;2023-05-14T02:17:34;50;44;
47810;PMS5003;33575;52.600;7.318;2023-05-14T02:20:04;66;65;
47810;PMS5003;33575;52.600;7.318;2023-05-14T02:22:34;41;39;
47810;PMS5003;33575;52.600;7.318;2023-05-14T02:25:05;45;42;
47810;PMS5003;33575;52.600;7.318;2023-05-14T02:27:35;37;37;
47810;PMS5003;33575;52.600;7.318;2023-05-14T02:30:06;55;53;
47810;PMS5003;33575;52.600;7.318;2023-05-14T02:32:35;35;34;
47810;PMS5003;33575;52.600;7.318;2023-05-14T02:35:06;44;42;
47810;PMS5003;33575;52.600;7.318;2023-05-14T02:37:36;44;44;
47810;PMS5003;33575;52.600;7.318;2023-05-14T02:40:07;42;42;
47810;PMS5003;33575;52.600;7.318;2023-05-14T02:42:38;44;42;
47810;PMS5003;33575;52.600;7.318;2023-05-14T02:45:08;44;43;
47810;PMS5003;33575;52.600;7.318;2023-05-14T02:47:39;37;36;
47810;PMS5003;33575;52.600;7.318;2023-05-14T02:50:09;46;44;
47810;PMS5003;33575;52.600;7.318;2023-05-14T02:52:39;39;37;
47810;PMS5003;33575;52.600;7.318;2023-05-14T02:55:10;38;37;
47810;PMS5003;33575;52.600;7.318;2023-05-14T02:57:40;37;37;
47810;PMS5003;33575;52.600;7.318;2023-05-14T03:00:12;34;34;
47810;PMS5003;33575;52.600;7.318;2023-05-14T03:02:42;41;38;
47810;PMS5003;33575;52.600;7.318;2023-05-14T03:05:12;38;36;
47810;PMS5003;33575;52.600;7.318;2023-05-14T03:07:43;39;38;
47810;PMS5003;33575;52.600;7.318;2023-05-14T03:10:13;42;41;
47810;PMS5003;33575;52.600;7.318;2023-05-14T03:12:44;38;37;
47810;PMS5003;33575;52.600;7.318;2023-05-14T03:15:14;34;34;
47810;PMS5003;33575;52.600;7.318;2023-05-14T03:17:45;40;39;
47810;PMS5003;33575;52.600;7.318;2023-05-14T03:20:15;42;41;
47810;PMS5003;33575;52.600;7.318;2023-05-14T03:22:46;50;48;
47810;PMS5003;33575;52.600;7.318;2023-05-14T03:25:16;75;74;
47810;PMS5003;33575;52.600;7.318;2023-05-14T03:27:47;49;47;
47810;PMS5003;33575;52.600;7.318;2023-05-14T03:30:18;42;41;
47810;PMS5003;33575;52.600;7.318;2023-05-14T03:32:49;42;40;
47810;PMS5003;33575;52.600;7.318;2023-05-14T03:35:19;41;39;
47810;PMS5003;33575;52.600;7.318;2023-05-14T03:37:49;55;53;
47810;PMS5003;33575;52.600;7.318;2023-05-14T03:40:19;49;48;
47810;PMS5003;33575;52.600;7.318;2023-05-14T03:42:50;44;43;
47810;PMS5003;33575;52.600;7.318;2023-05-14T03:45:21;47;46;
47810;PMS5003;33575;52.600;7.318;2023-05-14T03:47:51;69;67;
47810;PMS5003;33575;52.600;7.318;2023-05-14T03:50:22;46;43;
47810;PMS5003;33575;52.600;7.318;2023-05-14T03:52:52;44;41;
47810;PMS5003;33575;52.600;7.318;2023-05-14T03:55:22;51;49;
47810;PMS5003;33575;52.600;7.318;2023-05-14T03:57:52;83;83;
47810;PMS5003;33575;52.600;7.318;2023-05-14T04:00:24;41;40;
47810;PMS5003;33575;52.600;7.318;2023-05-14T04:02:54;45;44;
47810;PMS5003;33575;52.600;7.318;2023-05-14T04:05:24;45;44;
47810;PMS5003;33575;52.600;7.318;2023-05-14T04:07:54;51;50;
47810;PMS5003;33575;52.600;7.318;2023-05-14T04:10:25;39;37;
47810;PMS5003;33575;52.600;7.318;2023-05-14T04:12:55;42;42;
47810;PMS5003;33575;52.600;7.318;2023-05-14T04:15:26;70;67;
47810;PMS5003;33575;52.600;7.318;2023-05-14T04:17:57;73;72;
47810;PMS5003;33575;52.600;7.318;2023-05-14T04:20:27;38;36;
47810;PMS5003;33575;52.600;7.318;2023-05-14T04:22:57;43;43;
47810;PMS5003;33575;52.600;7.318;2023-05-14T04:25:27;51;50;
47810;PMS5003;33575;52.600;7.318;2023-05-14T04:27:58;39;39;
47810;PMS5003;33575;52.600;7.318;2023-05-14T04:30:29;47;44;
47810;PMS5003;33575;52.600;7.318;2023-05-14T04:32:59;46;44;
47810;PMS5003;33575;52.600;7.318;2023-05-14T04:35:29;41;39;
47810;PMS5003;33575;52.600;7.318;2023-05-14T04:38:00;55;50;
47810;PMS5003;33575;52.600;7.318;2023-05-14T04:40:30;38;38;
47810;PMS5003;33575;52.600;7.318;2023-05-14T04:43:01;41;39;
47810;PMS5003;33575;52.600;7.318;2023-05-14T04:45:34;42;41;
47810;PMS5003;33575;52.600;7.318;2023-05-14T04:48:01;51;47;
47810;PMS5003;33575;52.600;7.318;2023-05-14T04:50:31;45;43;
47810;PMS5003;33575;52.600;7.318;2023-05-14T04:53:01;47;46;
47810;PMS5003;33575;52.600;7.318;2023-05-14T04:55:32;60;60;
47810;PMS5003;33575;52.600;7.318;2023-05-14T04:58:02;47;45;
47810;PMS5003;33575;52.600;7.318;2023-05-14T05:00:33;48;46;
47810;PMS5003;33575;52.600;7.318;2023-05-14T05:03:03;62;58;
47810;PMS5003;33575;52.600;7.318;2023-05-14T05:05:33;44;42;
47810;PMS5003;33575;52.600;7.318;2023-05-14T05:08:04;49;46;
47810;PMS5003;33575;52.600;7.318;2023-05-14T05:10:34;42;41;
47810;PMS5003;33575;52.600;7.318;2023-05-14T05:13:04;46;45;
47810;PMS5003;33575;52.600;7.318;2023-05-14T05:15:34;54;53;
47810;PMS5003;33575;52.600;7.318;2023-05-14T05:18:05;47;45;
47810;PMS5003;33575;52.600;7.318;2023-05-14T05:20:35;49;47;
47810;PMS5003;33575;52.600;7.318;2023-05-14T05:23:06;55;52;
47810;PMS5003;33575;52.600;7.318;2023-05-14T05:25:36;57;55;
47810;PMS5003;33575;52.600;7.318;2023-05-14T05:28:06;64;63;
47810;PMS5003;33575;52.600;7.318;2023-05-14T05:30:36;53;52;
47810;PMS5003;33575;52.600;7.318;2023-05-14T05:33:07;44;43;
47810;PMS5003;33575;52.600;7.318;2023-05-14T05:35:37;73;70;
47810;PMS5003;33575;52.600;7.318;2023-05-14T05:38:08;47;43;
47810;PMS5003;33575;52.600;7.318;2023-05-14T05:40:38;58;57;
47810;PMS5003;33575;52.600;7.318;2023-05-14T05:43:09;49;48;
47810;PMS5003;33575;52.600;7.318;2023-05-14T05:45:39;51;51;
47810;PMS5003;33575;52.600;7.318;2023-05-14T05:48:09;51;49;
47810;PMS5003;33575;52.600;7.318;2023-05-14T05:50:40;51;49;
47810;PMS5003;33575;52.600;7.318;2023-05-14T05:53:10;45;45;
47810;PMS5003;33575;52.600;7.318;2023-05-14T05:55:41;50;46;
47810;PMS5003;33575;52.600;7.318;2023-05-14T05:58:11;50;46;
47810;PMS5003;33575;52.600;7.318;2023-05-14T06:00:42;43;42;
47810;PMS5003;33575;52.600;7.318;2023-05-14T06:03:12;44;43;
47810;PMS5003;33575;52.600;7.318;2023-05-14T06:05:43;45;44;
47810;PMS5003;33575;52.600;7.318;2023-05-14T06:08:13;53;51;
47810;PMS5003;33575;52.600;7.318;2023-05-14T06:10:43;53;52;
47810;PMS5003;33575;52.600;7.318;2023-05-14T06:13:14;48;46;
47810;PMS5003;33575;52.600;7.318;2023-05-14T06:15:44;48;46;
47810;PMS5003;33575;52.600;7.318;2023-05-14T06:18:15;46;45;
47810;PMS5003;33575;52.600;7.318;2023-05-14T06:20:45;65;63;
47810;PMS5003;33575;52.600;7.318;2023-05-14T06:23:16;51;50;
47810;PMS5003;33575;52.600;7.318;2023-05-14T06:25:48;50;49;
47810;PMS5003;33575;52.600;7.318;2023-05-14T06:28:17;45;44;
47810;PMS5003;33575;52.600;7.318;2023-05-14T06:30:48;50;48;
47810;PMS5003;33575;52.600;7.318;2023-05-14T06:33:21;47;46;
47810;PMS5003;33575;52.600;7.318;2023-05-14T06:35:48;47;45;
47810;PMS5003;33575;52.600;7.318;2023-05-14T06:38:19;54;53;
47810;PMS5003;33575;52.600;7.318;2023-05-14T06:40:49;51;48;
47810;PMS5003;33575;52.600;7.318;2023-05-14T06:43:19;41;41;
47810;PMS5003;33575;52.600;7.318;2023-05-14T06:45:50;42;40;
47810;PMS5003;33575;52.600;7.318;2023-05-14T06:48:20;41;41;
47810;PMS5003;33575;52.600;7.318;2023-05-14T06:50:50;48;45;
47810;PMS5003;33575;52.600;7.318;2023-05-14T06:53:20;47;45;
47810;PMS5003;33575;52.600;7.318;2023-05-14T06:55:51;51;47;
47810;PMS5003;33575;52.600;7.318;2023-05-14T06:58:21;46;43;
47810;PMS5003;33575;52.600;7.318;2023-05-14T07:00:51;43;43;
47810;PMS5003;33575;52.600;7.318;2023-05-14T07:03:22;45;43;
47810;PMS5003;33575;52.600;7.318;2023-05-14T07:05:52;45;43;
47810;PMS5003;33575;52.600;7.318;2023-05-14T07:08:22;43;42;
47810;PMS5003;33575;52.600;7.318;2023-05-14T07:10:52;42;42;
47810;PMS5003;33575;52.600;7.318;2023-05-14T07:13:25;45;42;
47810;PMS5003;33575;52.600;7.318;2023-05-14T07:15:53;42;42;
47810;PMS5003;33575;52.600;7.318;2023-05-14T07:18:23;49;48;
47810;PMS5003;33575;52.600;7.318;2023-05-14T07:20:54;42;41;
47810;PMS5003;33575;52.600;7.318;2023-05-14T07:23:24;45;44;
47810;PMS5003;33575;52.600;7.318;2023-05-14T07:25:55;42;42;
47810;PMS5003;33575;52.600;7.318;2023-05-14T07:28:25;40;40;
47810;PMS5003;33575;52.600;7.318;2023-05-14T07:30:56;42;40;
47810;PMS5003;33575;52.600;7.318;2023-05-14T07:33:27;44;43;
47810;PMS5003;33575;52.600;7.318;2023-05-14T07:35:58;41;40;
47810;PMS5003;33575;52.600;7.318;2023-05-14T07:38:28;39;37;
47810;PMS5003;33575;52.600;7.318;2023-05-14T07:40:59;44;42;
47810;PMS5003;33575;52.600;7.318;2023-05-14T07:43:29;44;43;
47810;PMS5003;33575;52.600;7.318;2023-05-14T07:46:00;44;43;
47810;PMS5003;33575;52.600;7.318;2023-05-14T07:48:31;43;42;
47810;PMS5003;33575;52.600;7.318;2023-05-14T07:51:01;40;38;
47810;PMS5003;33575;52.600;7.318;2023-05-14T07:53:32;45;43;
47810;PMS5003;33575;52.600;7.318;2023-05-14T07:56:02;41;39;
47810;PMS5003;33575;52.600;7.318;2023-05-14T07:58:33;45;43;
47810;PMS5003;33575;52.600;7.318;2023-05-14T08:01:03;41;41;
47810;PMS5003;33575;52.600;7.318;2023-05-14T08:03:34;41;39;
47810;PMS5003;33575;52.600;7.318;2023-05-14T08:06:05;40;39;
47810;PMS5003;33575;52.600;7.318;2023-05-14T08:08:34;37;35;
47810;PMS5003;33575;52.600;7.318;2023-05-14T08:11:06;37;37;
47810;PMS5003;33575;52.600;7.318;2023-05-14T08:13:35;42;41;
47810;PMS5003;33575;52.600;7.318;2023-05-14T08:16:06;39;37;
47810;PMS5003;33575;52.600;7.318;2023-05-14T08:18:36;38;37;
47810;PMS5003;33575;52.600;7.318;2023-05-14T08:21:06;35;34;
47810;PMS5003;33575;52.600;7.318;2023-05-14T08:23:36;32;32;
47810;PMS5003;33575;52.600;7.318;2023-05-14T08:26:07;34;33;
47810;PMS5003;33575;52.600;7.318;2023-05-14T08:28:37;36;34;
47810;PMS5003;33575;52.600;7.318;2023-05-14T08:31:07;38;37;
47810;PMS5003;33575;52.600;7.318;2023-05-14T08:33:37;35;35;
47810;PMS5003;33575;52.600;7.318;2023-05-14T08:36:08;40;37;
47810;PMS5003;33575;52.600;7.318;2023-05-14T08:38:38;35;35;
47810;PMS5003;33575;52.600;7.318;2023-05-14T08:41:09;40;38;
47810;PMS5003;33575;52.600;7.318;2023-05-14T08:43:42;36;34;
47810;PMS5003;33575;52.600;7.318;2023-05-14T08:46:09;37;35;
47810;PMS5003;33575;52.600;7.318;2023-05-14T08:48:41;34;33;
47810;PMS5003;33575;52.600;7.318;2023-05-14T08:51:10;33;33;
47810;PMS5003;33575;52.600;7.318;2023-05-14T08:53:40;31;31;
47810;PMS5003;33575;52.600;7.318;2023-05-14T08:56:11;31;30;
47810;PMS5003;33575;52.600;7.318;2023-05-14T08:58:42;35;32;
47810;PMS5003;33575;52.600;7.318;2023-05-14T09:01:12;30;30;
47810;PMS5003;33575;52.600;7.318;2023-05-14T09:03:43;32;30;
47810;PMS5003;33575;52.600;7.318;2023-05-14T09:06:13;27;26;
47810;PMS5003;33575;52.600;7.318;2023-05-14T09:08:44;30;28;
47810;PMS5003;33575;52.600;7.318;2023-05-14T09:11:15;27;26;
47810;PMS5003;33575;52.600;7.318;2023-05-14T09:13:45;32;31;
47810;PMS5003;33575;52.600;7.318;2023-05-14T09:16:16;31;30;
47810;PMS5003;33575;52.600;7.318;2023-05-14T09:18:46;28;28;
47810;PMS5003;33575;52.600;7.318;2023-05-14T09:21:17;33;31;
47810;PMS5003;33575;52.600;7.318;2023-05-14T09:23:47;29;29;
47810;PMS5003;33575;52.600;7.318;2023-05-14T09:26:18;27;27;
47810;PMS5003;33575;52.600;7.318;2023-05-14T09:28:48;27;26;
47810;PMS5003;33575;52.600;7.318;2023-05-14T09:31:18;27;26;
47810;PMS5003;33575;52.600;7.318;2023-05-14T09:33:49;28;28;
47810;PMS5003;33575;52.600;7.318;2023-05-14T09:36:19;26;25;
47810;PMS5003;33575;52.600;7.318;2023-05-14T09:38:50;26;25;
47810;PMS5003;33575;52.600;7.318;2023-05-14T09:41:20;26;26;
47810;PMS5003;33575;52.600;7.318;2023-05-14T09:43:50;33;31;
47810;PMS5003;33575;52.600;7.318;2023-05-14T09:46:21;37;35;
47810;PMS5003;33575;52.600;7.318;2023-05-14T09:48:51;27;26;
47810;PMS5003;33575;52.600;7.318;2023-05-14T09:51:22;27;26;
47810;PMS5003;33575;52.600;7.318;2023-05-14T09:53:52;21;19;
47810;PMS5003;33575;52.600;7.318;2023-05-14T09:56:22;24;22;
47810;PMS5003;33575;52.600;7.318;2023-05-14T09:58:53;27;27;
47810;PMS5003;33575;52.600;7.318;2023-05-14T10:01:24;24;24;
47810;PMS5003;33575;52.600;7.318;2023-05-14T10:03:54;18;18;
47810;PMS5003;33575;52.600;7.318;2023-05-14T10:06:26;16;16;
47810;PMS5003;33575;52.600;7.318;2023-05-14T10:08:56;23;22;
47810;PMS5003;33575;52.600;7.318;2023-05-14T10:11:27;35;34;
47810;PMS5003;33575;52.600;7.318;2023-05-14T10:13:57;20;20;
47810;PMS5003;33575;52.600;7.318;2023-05-14T10:16:27;25;25;
47810;PMS5003;33575;52.600;7.318;2023-05-14T10:18:59;18;18;
47810;PMS5003;33575;52.600;7.318;2023-05-14T10:21:28;14;14;
47810;PMS5003;33575;52.600;7.318;2023-05-14T10:23:58;9;9;
47810;PMS5003;33575;52.600;7.318;2023-05-14T10:26:28;14;12;
47810;PMS5003;33575;52.600;7.318;2023-05-14T10:28:59;13;11;
47810;PMS5003;33575;52.600;7.318;2023-05-14T10:34:00;13;13;
47810;PMS5003;33575;52.600;7.318;2023-05-14T10:36:29;9;9;
47810;PMS5003;33575;52.600;7.318;2023-05-14T10:38:59;9;9;
47810;PMS5003;33575;52.600;7.318;2023-05-14T10:41:29;10;9;
47810;PMS5003;33575;52.600;7.318;2023-05-14T10:44:00;10;10;
47810;PMS5003;33575;52.600;7.318;2023-05-14T10:46:30;11;11;
47810;PMS5003;33575;52.600;7.318;2023-05-14T10:49:00;11;10;
47810;PMS5003;33575;52.600;7.318;2023-05-14T10:51:30;8;8;
47810;PMS5003;33575;52.600;7.318;2023-05-14T10:54:00;12;12;
47810;PMS5003;33575;52.600;7.318;2023-05-14T10:56:30;10;10;
47810;PMS5003;33575;52.600;7.318;2023-05-14T10:59:01;11;11;
47810;PMS5003;33575;52.600;7.318;2023-05-14T11:01:31;11;11;
47810;PMS5003;33575;52.600;7.318;2023-05-14T11:04:01;12;11;
47810;PMS5003;33575;52.600;7.318;2023-05-14T11:06:31;10;10;
47810;PMS5003;33575;52.600;7.318;2023-05-14T11:09:01;13;12;
47810;PMS5003;33575;52.600;7.318;2023-05-14T11:11:32;12;11;
47810;PMS5003;33575;52.600;7.318;2023-05-14T11:14:02;16;12;
47810;PMS5003;33575;52.600;7.318;2023-05-14T11:16:32;12;12;
47810;PMS5003;33575;52.600;7.318;2023-05-14T11:19:03;12;11;
47810;PMS5003;33575;52.600;7.318;2023-05-14T11:21:33;12;11;
47810;PMS5003;33575;52.600;7.318;2023-05-14T11:24:02;12;12;
47810;PMS5003;33575;52.600;7.318;2023-05-14T11:26:33;12;12;
47810;PMS5003;33575;52.600;7.318;2023-05-14T11:29:03;12;11;
47810;PMS5003;33575;52.600;7.318;2023-05-14T11:31:33;13;13;
47810;PMS5003;33575;52.600;7.318;2023-05-14T11:34:05;15;15;
47810;PMS5003;33575;52.600;7.318;2023-05-14T11:36:35;16;15;
47810;PMS5003;33575;52.600;7.318;2023-05-14T11:39:04;12;12;
47810;PMS5003;33575;52.600;7.318;2023-05-14T11:41:34;12;11;
47810;PMS5003;33575;52.600;7.318;2023-05-14T11:44:04;12;11;
47810;PMS5003;33575;52.600;7.318;2023-05-14T11:46:35;10;10;
47810;PMS5003;33575;52.600;7.318;2023-05-14T11:49:05;15;15;
47810;PMS5003;33575;52.600;7.318;2023-05-14T11:51:35;13;12;
47810;PMS5003;33575;52.600;7.318;2023-05-14T11:54:05;13;13;
47810;PMS5003;33575;52.600;7.318;2023-05-14T11:56:36;13;12;
47810;PMS5003;33575;52.600;7.318;2023-05-14T11:59:06;13;12;
47810;PMS5003;33575;52.600;7.318;2023-05-14T12:01:36;12;11;
47810;PMS5003;33575;52.600;7.318;2023-05-14T12:04:06;12;12;
47810;PMS5003;33575;52.600;7.318;2023-05-14T12:06:37;16;16;
47810;PMS5003;33575;52.600;7.318;2023-05-14T12:09:07;11;11;
47810;PMS5003;33575;52.600;7.318;2023-05-14T12:11:37;9;9;
47810;PMS5003;33575;52.600;7.318;2023-05-14T12:14:09;12;12;
47810;PMS5003;33575;52.600;7.318;2023-05-14T12:16:39;12;12;
47810;PMS5003;33575;52.600;7.318;2023-05-14T12:19:08;10;10;
47810;PMS5003;33575;52.600;7.318;2023-05-14T12:21:38;11;11;
47810;PMS5003;33575;52.600;7.318;2023-05-14T12:24:09;13;13;
47810;PMS5003;33575;52.600;7.318;2023-05-14T12:26:39;11;11;
47810;PMS5003;33575;52.600;7.318;2023-05-14T12:29:11;12;12;
47810;PMS5003;33575;52.600;7.318;2023-05-14T12:31:43;10;10;
47810;PMS5003;33575;52.600;7.318;2023-05-14T12:34:09;10;9;
47810;PMS5003;33575;52.600;7.318;2023-05-14T12:36:39;13;12;
47810;PMS5003;33575;52.600;7.318;2023-05-14T12:39:10;12;12;
47810;PMS5003;33575;52.600;7.318;2023-05-14T12:41:40;12;12;
47810;PMS5003;33575;52.600;7.318;2023-05-14T12:44:10;13;12;
47810;PMS5003;33575;52.600;7.318;2023-05-14T12:46:40;13;13;
47810;PMS5003;33575;52.600;7.318;2023-05-14T12:49:10;12;12;
47810;PMS5003;33575;52.600;7.318;2023-05-14T12:51:40;12;12;
47810;PMS5003;33575;52.600;7.318;2023-05-14T12:54:11;14;14;
47810;PMS5003;33575;52.600;7.318;2023-05-14T12:56:41;13;13;
47810;PMS5003;33575;52.600;7.318;2023-05-14T12:59:11;11;11;
47810;PMS5003;33575;52.600;7.318;2023-05-14T13:01:42;11;10;
47810;PMS5003;33575;52.600;7.318;2023-05-14T13:04:12;14;13;
47810;PMS5003;33575;52.600;7.318;2023-05-14T13:06:42;12;12;
47810;PMS5003;33575;52.600;7.318;2023-05-14T13:09:12;13;13;
47810;PMS5003;33575;52.600;7.318;2023-05-14T13:11:42;12;12;
47810;PMS5003;33575;52.600;7.318;2023-05-14T13:14:13;15;14;
47810;PMS5003;33575;52.600;7.318;2023-05-14T13:16:43;12;12;
47810;PMS5003;33575;52.600;7.318;2023-05-14T13:19:13;15;15;
47810;PMS5003;33575;52.600;7.318;2023-05-14T13:21:43;16;16;
47810;PMS5003;33575;52.600;7.318;2023-05-14T13:24:13;14;13;
47810;PMS5003;33575;52.600;7.318;2023-05-14T13:26:44;12;12;
47810;PMS5003;33575;52.600;7.318;2023-05-14T13:29:14;15;14;
47810;PMS5003;33575;52.600;7.318;2023-05-14T13:31:44;12;12;
47810;PMS5003;33575;52.600;7.318;2023-05-14T13:34:14;12;12;
47810;PMS5003;33575;52.600;7.318;2023-05-14T13:36:45;11;11;
47810;PMS5003;33575;52.600;7.318;2023-05-14T13:39:15;12;12;
47810;PMS5003;33575;52.600;7.318;2023-05-14T13:41:45;13;12;
47810;PMS5003;33575;52.600;7.318;2023-05-14T13:44:16;13;12;
47810;PMS5003;33575;52.600;7.318;2023-05-14T13:46:46;14;14;
47810;PMS5003;33575;52.600;7.318;2023-05-14T13:49:17;11;11;
47810;PMS5003;33575;52.600;7.318;2023-05-14T13:51:47;12;11;
47810;PMS5003;33575;52.600;7.318;2023-05-14T13:54:17;13;13;
47810;PMS5003;33575;52.600;7.318;2023-05-14T13:56:47;13;13;
47810;PMS5003;33575;52.600;7.318;2023-05-14T13:59:17;14;12;
47810;PMS5003;33575;52.600;7.318;2023-05-14T14:01:48;15;15;
47810;PMS5003;33575;52.600;7.318;2023-05-14T14:04:18;14;14;
47810;PMS5003;33575;52.600;7.318;2023-05-14T14:06:48;14;13;
47810;PMS5003;33575;52.600;7.318;2023-05-14T14:09:18;11;11;
47810;PMS5003;33575;52.600;7.318;2023-05-14T14:11:49;11;10;
47810;PMS5003;33575;52.600;7.318;2023-05-14T14:14:19;12;11;
47810;PMS5003;33575;52.600;7.318;2023-05-14T14:16:49;13;12;
47810;PMS5003;33575;52.600;7.318;2023-05-14T14:19:19;13;12;
47810;PMS5003;33575;52.600;7.318;2023-05-14T14:21:49;14;12;
47810;PMS5003;33575;52.600;7.318;2023-05-14T14:24:19;12;12;
47810;PMS5003;33575;52.600;7.318;2023-05-14T14:26:50;12;12;
47810;PMS5003;33575;52.600;7.318;2023-05-14T14:29:20;13;12;
47810;PMS5003;33575;52.600;7.318;2023-05-14T14:31:50;13;13;
47810;PMS5003;33575;52.600;7.318;2023-05-14T14:34:20;12;12;
47810;PMS5003;33575;52.600;7.318;2023-05-14T14:36:50;13;12;
47810;PMS5003;33575;52.600;7.318;2023-05-14T14:39:21;12;12;
47810;PMS5003;33575;52.600;7.318;2023-05-14T14:41:51;11;11;
47810;PMS5003;33575;52.600;7.318;2023-05-14T14:44:21;13;13;
47810;PMS5003;33575;52.600;7.318;2023-05-14T14:46:51;12;12;
47810;PMS5003;33575;52.600;7.318;2023-05-14T14:49:22;15;14;
47810;PMS5003;33575;52.600;7.318;2023-05-14T14:51:52;11;11;
47810;PMS5003;33575;52.600;7.318;2023-05-14T14:54:22;12;11;
47810;PMS5003;33575;52.600;7.318;2023-05-14T14:56:52;13;13;
47810;PMS5003;33575;52.600;7.318;2023-05-14T14:59:22;10;10;
47810;PMS5003;33575;52.600;7.318;2023-05-14T15:01:52;14;13;
47810;PMS5003;33575;52.600;7.318;2023-05-14T15:04:23;15;13;
47810;PMS5003;33575;52.600;7.318;2023-05-14T15:06:53;14;13;
47810;PMS5003;33575;52.600;7.318;2023-05-14T15:09:23;15;14;
47810;PMS5003;33575;52.600;7.318;2023-05-14T15:11:53;13;13;
47810;PMS5003;33575;52.600;7.318;2023-05-14T15:14:24;14;14;
47810;PMS5003;33575;52.600;7.318;2023-05-14T15:16:54;14;14;
47810;PMS5003;33575;52.600;7.318;2023-05-14T15:19:24;12;12;
47810;PMS5003;33575;52.600;7.318;2023-05-14T15:21:54;13;13;
47810;PMS5003;33575;52.600;7.318;2023-05-14T15:24:25;14;14;
47810;PMS5003;33575;52.600;7.318;2023-05-14T15:26:55;13;12;
47810;PMS5003;33575;52.600;7.318;2023-05-14T15:29:25;13;13;
47810;PMS5003;33575;52.600;7.318;2023-05-14T15:31:55;14;14;
47810;PMS5003;33575;52.600;7.318;2023-05-14T15:34:25;14;13;
47810;PMS5003;33575;52.600;7.318;2023-05-14T15:36:56;12;11;
47810;PMS5003;33575;52.600;7.318;2023-05-14T15:39:26;14;11;
47810;PMS5003;33575;52.600;7.318;2023-05-14T15:41:56;15;15;
47810;PMS5003;33575;52.600;7.318;2023-05-14T15:44:26;17;14;
47810;PMS5003;33575;52.600;7.318;2023-05-14T15:46:57;11;11;
47810;PMS5003;33575;52.600;7.318;2023-05-14T15:49:27;13;12;
47810;PMS5003;33575;52.600;7.318;2023-05-14T15:51:57;15;15;
47810;PMS5003;33575;52.600;7.318;2023-05-14T15:54:27;15;15;
47810;PMS5003;33575;52.600;7.318;2023-05-14T15:56:57;13;13;
47810;PMS5003;33575;52.600;7.318;2023-05-14T15:59:28;15;13;
47810;PMS5003;33575;52.600;7.318;2023-05-14T16:01:59;14;14;
47810;PMS5003;33575;52.600;7.318;2023-05-14T16:04:29;13;13;
47810;PMS5003;33575;52.600;7.318;2023-05-14T16:07:00;14;14;
47810;PMS5003;33575;52.600;7.318;2023-05-14T16:09:29;13;13;
47810;PMS5003;33575;52.600;7.318;2023-05-14T16:11:59;13;13;
47810;PMS5003;33575;52.600;7.318;2023-05-14T16:14:31;12;12;
47810;PMS5003;33575;52.600;7.318;2023-05-14T16:17:01;15;14;
47810;PMS5003;33575;52.600;7.318;2023-05-14T16:19:31;14;14;
47810;PMS5003;33575;52.600;7.318;2023-05-14T16:22:02;16;16;
47810;PMS5003;33575;52.600;7.318;2023-05-14T16:24:32;13;12;
47810;PMS5003;33575;52.600;7.318;2023-05-14T16:27:03;20;19;
47810;PMS5003;33575;52.600;7.318;2023-05-14T16:29:33;15;14;
47810;PMS5003;33575;52.600;7.318;2023-05-14T16:32:04;17;16;
47810;PMS5003;33575;52.600;7.318;2023-05-14T16:34:34;15;15;
47810;PMS5003;33575;52.600;7.318;2023-05-14T16:37:04;14;14;
47810;PMS5003;33575;52.600;7.318;2023-05-14T16:39:34;17;17;
47810;PMS5003;33575;52.600;7.318;2023-05-14T16:42:05;17;17;